Time;durP1;ratioP1;P1;durP2;ratioP2;P2;SDS_P1;SDS_P2;PMS_P1;PMS_P2;Temp;Humidity;BMP_temperature;BMP_pressure;BME280_temperature;BME280_humidity;BME280_pressure;Samples;Min_cycle;Max_cycle;Signal;HPM_P1;HPM_P2
2022/05/01 00:00:05;;;;;;;18.10;16.60;;;9.90;98.90;;;8.59;90.67;98343.81;5081080;28;21131;-74
2022/05/01 00:02:32;;;;;;;18.50;16.80;;;9.80;99.20;;;8.57;90.92;98340.50;5082958;28;20488;-75
2022/05/01 00:04:59;;;;;;;18.03;16.43;;;9.80;99.60;;;8.62;91.22;98334.53;5081704;28;20530;-79
2022/05/01 00:07:26;;;;;;;18.23;16.63;;;9.80;99.90;;;8.53;91.15;98322.22;5081782;28;20457;-73
2022/05/01 00:09:54;;;;;;;18.70;17.00;;;9.80;99.90;;;8.67;90.72;98334.78;5088295;28;20455;-79
2022/05/01 00:12:22;;;;;;;17.30;15.80;;;9.80;99.80;;;8.68;90.79;98341.81;5087192;28;20529;-75
2022/05/01 00:14:49;;;;;;;18.77;16.87;;;9.90;99.60;;;8.89;90.08;98343.63;5086843;28;20483;-77
2022/05/01 00:17:16;;;;;;;17.70;16.20;;;10.00;99.10;;;8.73;90.30;98338.53;5083060;28;20817;-76
2022/05/01 00:19:43;;;;;;;19.07;17.17;;;9.90;99.10;;;8.75;90.28;98337.34;5083524;28;20532;-77
2022/05/01 00:22:10;;;;;;;17.97;16.37;;;9.90;99.00;;;8.91;90.37;98335.38;5098290;27;20442;-77
2022/05/01 00:24:37;;;;;;;17.37;15.87;;;10.00;99.90;;;8.87;90.04;98334.06;5074401;28;20568;-73
2022/05/01 00:27:06;;;;;;;17.07;15.53;;;10.00;98.80;;;8.87;90.55;98334.91;5074699;28;20463;-76
2022/05/01 00:29:33;;;;;;;19.37;17.57;;;10.00;99.60;;;8.70;91.03;98326.28;5077637;28;20804;-73
2022/05/01 00:32:02;;;;;;;19.20;17.50;;;9.90;99.40;;;8.65;91.20;98331.44;5083324;28;20460;-74
2022/05/01 00:37:14;;;;;;;19.40;17.50;;;9.80;99.90;;;8.48;92.21;98320.91;5076328;28;20448;-75
2022/05/01 00:39:41;;;;;;;20.67;18.67;;;9.70;99.90;;;8.63;91.54;98328.13;5076852;28;20481;-72
2022/05/01 00:42:09;;;;;;;18.93;17.20;;;9.80;99.90;;;8.61;92.24;98319.41;5076905;28;21027;-74
2022/05/01 00:44:36;;;;;;;18.97;17.17;;;9.80;99.90;;;8.57;92.54;98326.19;5073776;28;20495;-74
2022/05/01 00:47:03;;;;;;;18.57;16.87;;;9.80;99.90;;;8.63;91.91;98322.72;5087722;28;20931;-74
2022/05/01 00:49:30;;;;;;;19.47;17.77;;;9.80;99.90;;;8.53;92.33;98327.59;5096908;28;20467;-72
2022/05/01 00:52:01;;;;;;;19.50;17.43;;;9.70;99.90;;;8.67;92.20;98324.00;5105547;28;20478;-71
2022/05/01 00:54:31;;;;;;;18.80;17.00;;;9.80;99.90;;;8.66;91.60;98327.72;5107602;28;20480;-73
2022/05/01 00:57:02;;;;;;;19.73;17.30;;;9.80;99.90;;;8.33;91.47;98285.16;5081667;28;20472;-73
2022/05/01 00:59:33;;;;;;;19.20;17.20;;;9.80;99.90;;;8.62;92.33;98329.16;5081442;28;20470;-72
2022/05/01 01:02:00;;;;;;;19.87;17.97;;;9.80;99.90;;;8.53;92.30;98335.69;5080812;28;21389;-75
2022/05/01 01:04:27;;;;;;;20.57;18.27;;;9.70;99.90;;;8.47;93.06;98340.81;5081065;28;20937;-76
2022/05/01 01:06:54;;;;;;;21.30;19.30;;;9.70;99.90;;;8.62;92.08;98331.84;5083975;28;20452;-74
2022/05/01 01:09:21;;;;;;;20.77;18.90;;;9.70;99.90;;;8.62;91.64;98327.25;5089811;28;20446;-77
2022/05/01 01:12:53;;;;;;;19.50;17.60;;;9.80;99.90;;;8.52;92.33;98326.78;5083053;28;20487;-76
2022/05/01 01:14:37;;;;;;;20.03;18.00;;;9.70;99.90;;;8.48;92.37;98326.31;5083964;28;20489;-73
2022/05/01 01:17:05;;;;;;;20.20;18.20;;;9.70;99.90;;;8.62;92.38;98331.84;5082324;28;20474;-72
2022/05/01 01:19:32;;;;;;;20.93;18.63;;;9.70;99.90;;;8.57;91.74;98334.25;5094967;28;20447;-70
2022/05/01 01:22:01;;;;;;;21.00;19.10;;;9.70;99.90;;;8.50;92.03;98318.91;5092510;28;20467;-75
2022/05/01 01:24:28;;;;;;;19.90;18.10;;;9.70;99.90;;;8.39;93.02;98324.78;5108295;28;20439;-70
2022/05/01 01:26:57;;;;;;;18.73;16.87;;;9.60;99.90;;;8.50;92.47;98324.28;5103536;28;20523;-70
2022/05/01 01:32:13;;;;;;;20.67;18.77;;;9.60;99.90;;;8.44;92.29;98319.66;5124044;27;20447;-73
2022/05/01 01:34:43;;;;;;;19.70;17.90;;;9.60;99.90;;;8.48;92.72;98322.78;5114376;28;20451;-71
2022/05/01 01:37:14;;;;;;;18.67;16.83;;;9.60;99.90;;;8.47;92.35;98319.25;5118688;28;20481;-76
2022/05/01 01:39:41;;;;;;;17.60;16.00;;;9.60;99.90;;;8.42;92.19;98310.94;5102423;28;20572;-73
2022/05/01 01:42:12;;;;;;;20.47;18.57;;;9.60;99.90;;;8.27;93.21;98312.88;5095210;28;20448;-78
2022/05/01 01:44:40;;;;;;;20.83;19.03;;;9.50;99.90;;;8.23;93.62;98321.31;5090078;28;20445;-77
2022/05/01 01:47:07;;;;;;;20.10;18.30;;;9.40;99.90;;;8.21;93.71;98320.69;5094338;28;20439;-76
2022/05/01 01:49:35;;;;;;;19.67;17.87;;;9.40;99.90;;;8.25;93.44;98314.91;5086039;28;20506;-73
2022/05/01 01:52:02;;;;;;;19.40;17.57;;;9.40;99.90;;;8.18;94.09;98317.53;5083288;28;20465;-74
2022/05/01 01:54:30;;;;;;;22.30;20.30;;;9.40;99.90;;;8.22;93.75;98316.97;5079592;28;20444;-75
2022/05/01 01:56:59;;;;;;;21.27;19.33;;;9.40;99.90;;;8.19;93.66;98303.06;5098555;28;20472;-75
2022/05/01 01:59:26;;;;;;;20.77;18.97;;;9.40;99.90;;;8.16;93.79;98312.34;5078310;28;20456;-74
2022/05/01 02:01:53;;;;;;;20.50;18.50;;;9.40;99.90;;;8.18;94.18;98309.47;5076683;28;20499;-75
2022/05/01 02:04:20;;;;;;;20.00;18.10;;;9.40;99.90;;;8.17;94.03;98297.88;5076891;28;20452;-74
2022/05/01 02:06:47;;;;;;;21.60;19.63;;;9.40;99.90;;;8.20;94.01;98300.19;5079492;28;20542;-72
2022/05/01 02:09:15;;;;;;;20.23;18.20;;;9.40;99.90;;;8.12;94.42;98311.09;5075641;28;20535;-72
2022/05/01 02:11:44;;;;;;;20.77;18.87;;;9.40;99.90;;;8.08;94.79;98301.72;5078712;28;21320;-73
2022/05/01 02:14:11;;;;;;;20.90;18.77;;;9.30;99.90;;;8.08;94.76;98301.72;5080140;28;20455;-69
2022/05/01 02:16:39;;;;;;;20.90;18.70;;;9.30;99.90;;;8.17;94.33;98297.88;5074027;28;20569;-76
2022/05/01 02:19:06;;;;;;;20.60;18.60;;;9.40;99.90;;;8.19;93.72;98303.91;5077762;28;20463;-78
2022/05/01 02:21:36;;;;;;;21.60;19.53;;;9.40;99.90;;;8.32;93.65;98305.03;5078586;28;20456;-76
2022/05/01 02:24:08;;;;;;;20.37;18.50;;;9.40;99.90;;;8.15;93.93;98312.53;5074278;28;20956;-73
2022/05/01 02:26:36;;;;;;;21.40;19.40;;;9.40;99.90;;;8.01;94.51;98298.13;5079654;28;20533;-76
2022/05/01 02:29:09;;;;;;;20.30;18.40;;;9.30;99.90;;;8.19;94.33;98295.81;5079844;28;20455;-74
2022/05/01 02:31:39;;;;;;;20.73;18.83;;;9.40;99.90;;;8.06;94.72;98298.38;5077903;28;20444;-76
2022/05/01 02:34:06;;;;;;;22.63;20.60;;;9.30;99.90;;;8.04;95.06;98300.44;5071926;28;20470;-76
2022/05/01 02:36:33;;;;;;;22.37;20.37;;;9.30;99.90;;;8.00;95.88;98297.28;5074709;28;20566;-77
2022/05/01 02:39:00;;;;;;;23.20;20.80;;;9.20;99.90;;;7.97;95.63;98291.47;5083076;28;20588;-78
2022/05/01 02:41:28;;;;;;;22.33;19.93;;;9.20;99.90;;;7.90;95.89;98300.31;5078928;28;20551;-75
2022/05/01 02:43:56;;;;;;;23.07;20.73;;;9.20;99.90;;;7.90;96.01;98303.00;5078260;28;20460;-73
2022/05/01 02:46:26;;;;;;;22.40;20.20;;;9.10;99.90;;;8.03;96.33;98306.84;5075652;28;20451;-78
2022/05/01 02:48:53;;;;;;;22.60;20.50;;;9.10;99.90;;;7.89;95.82;98293.25;5096177;28;20440;-77
2022/05/01 02:51:20;;;;;;;28.47;22.50;;;9.20;99.90;;;7.72;95.88;98256.88;5076624;28;20460;-73
2022/05/01 02:53:48;;;;;;;22.90;20.70;;;9.20;99.90;;;8.01;95.78;98315.09;5078562;28;20521;-76
2022/05/01 02:56:15;;;;;;;22.90;20.60;;;9.20;99.90;;;7.94;96.02;98298.88;5074698;28;20537;-75
2022/05/01 02:58:42;;;;;;;22.70;20.40;;;9.20;99.90;;;7.98;96.29;98314.66;5084701;28;20975;-78
2022/05/01 03:01:09;;;;;;;24.17;21.87;;;9.20;99.90;;;8.12;95.70;98312.94;5079330;28;20444;-75
2022/05/01 03:03:38;;;;;;;22.40;20.00;;;9.30;99.90;;;8.10;95.54;98296.97;5089797;28;20550;-78
2022/05/01 03:06:04;;;;;;;22.73;20.43;;;9.30;99.90;;;8.32;94.29;98302.34;5086916;28;20949;-74
2022/05/01 03:08:31;;;;;;;22.50;20.30;;;9.50;99.90;;;8.18;94.58;98296.84;5093069;27;20467;-77
2022/05/01 03:10:58;;;;;;;21.57;19.57;;;9.40;99.90;;;8.23;94.47;98298.97;5091218;28;20483;-76
2022/05/01 03:13:25;;;;;;;22.93;20.50;;;9.40;99.90;;;8.40;93.92;98296.81;5092206;28;20450;-75
2022/05/01 03:15:52;;;;;;;22.00;19.70;;;9.50;99.90;;;8.30;93.81;98296.34;5089435;28;20456;-77
2022/05/01 03:23:51;;;;;;;23.33;21.10;;;9.50;99.90;;;8.38;94.42;98298.88;5082943;28;20544;-73
2022/05/01 03:26:18;;;;;;;23.70;21.30;;;9.50;99.90;;;8.21;94.11;98296.47;5075405;28;20464;-76
2022/05/01 03:28:46;;;;;;;23.10;20.90;;;9.50;99.90;;;8.09;94.34;98287.22;5081203;28;20454;-76
2022/05/01 03:31:13;;;;;;;23.20;21.00;;;9.40;99.90;;;8.12;95.12;98286.88;5079509;28;20451;-76
2022/05/01 03:33:41;;;;;;;24.63;22.13;;;9.40;99.90;;;8.12;94.76;98281.47;5077528;28;20552;-75
2022/05/01 03:36:10;;;;;;;25.70;23.23;;;9.40;99.90;;;8.16;95.17;98304.28;5080569;28;20467;-76
2022/05/01 03:38:39;;;;;;;24.47;21.97;;;9.40;99.90;;;8.16;94.99;98293.53;5083295;28;20499;-76
2022/05/01 03:41:14;;;;;;;24.10;21.80;;;9.40;99.90;;;8.26;95.01;98295.03;5095785;27;20522;-77
2022/05/01 03:43:41;;;;;;;22.77;20.57;;;9.40;99.90;;;8.26;94.26;98300.41;5076843;28;20542;-76
2022/05/01 03:46:08;;;;;;;24.07;21.43;;;9.40;99.90;;;8.19;94.40;98295.81;5078866;28;20558;-77
2022/05/01 03:48:35;;;;;;;24.50;22.20;;;9.40;99.90;;;8.18;94.72;98298.69;5080460;28;20460;-74
2022/05/01 03:51:03;;;;;;;22.87;20.47;;;9.40;99.90;;;8.38;92.49;98309.66;5087634;28;20474;-72
2022/05/01 03:53:31;;;;;;;22.60;20.50;;;9.50;99.90;;;8.22;93.64;98306.19;5109746;28;20451;-74
2022/05/01 03:55:59;;;;;;;24.00;21.70;;;9.50;99.90;;;8.40;93.65;98309.47;5091972;28;20570;-74
2022/05/01 03:58:29;;;;;;;24.17;21.87;;;9.50;99.90;;;8.38;92.29;98309.66;5087041;28;20523;-75
2022/05/01 04:00:56;;;;;;;22.43;20.20;;;9.60;99.90;;;8.35;92.29;98304.66;5086457;28;20452;-79
2022/05/01 04:03:23;;;;;;;24.20;21.80;;;9.50;99.90;;;8.30;92.84;98309.78;5075260;28;20453;-76
2022/05/01 04:05:50;;;;;;;23.17;21.00;;;9.50;99.90;;;8.31;93.31;98308.75;5080240;28;20452;-78
2022/05/01 04:08:17;;;;;;;24.30;21.53;;;9.50;99.90;;;8.21;93.74;98314.47;5083247;28;20457;-74
2022/05/01 04:10:47;;;;;;;25.77;23.07;;;9.50;99.90;;;8.18;93.62;98309.47;5086114;28;20450;-79
2022/05/01 04:13:15;;;;;;;25.43;23.03;;;9.40;99.90;;;8.16;94.30;98311.50;5089023;28;20479;-72
2022/05/01 04:15:43;;;;;;;26.67;23.87;;;9.40;99.90;;;8.16;94.18;98315.06;5086417;28;20448;-73
2022/05/01 04:18:12;;;;;;;26.00;23.40;;;9.40;99.90;;;8.37;93.45;98318.75;5082240;28;20454;-75
2022/05/01 04:20:39;;;;;;;26.73;23.83;;;9.50;99.90;;;8.43;92.98;98314.44;5080958;28;20481;-75
2022/05/01 04:23:09;;;;;;;25.90;23.30;;;9.60;99.90;;;8.55;91.70;98314.78;5070375;28;20459;-74
2022/05/01 04:25:37;;;;;;;24.37;21.97;;;9.70;99.90;;;8.63;91.04;98322.72;5076639;28;20495;-76
2022/05/01 04:28:07;;;;;;;25.47;22.90;;;9.80;99.70;;;8.59;90.15;98322.28;5078518;28;20539;-73
2022/05/01 04:30:35;;;;;;;25.37;22.87;;;9.80;97.60;;;8.59;91.00;98326.84;5077580;28;20448;-75
2022/05/01 04:33:05;;;;;;;23.93;21.60;;;9.70;99.30;;;8.67;90.18;98324.00;5082463;28;20490;-74
2022/05/01 04:35:34;;;;;;;31.53;24.50;;;9.80;97.20;;;8.75;89.91;98315.78;5071937;28;20530;-76
2022/05/01 04:38:03;;;;;;;23.67;21.20;;;9.90;97.30;;;8.55;90.14;98330.94;5082507;28;20498;-78
2022/05/01 04:40:32;;;;;;;24.47;21.90;;;9.80;97.10;;;8.64;90.60;98333.31;5078023;28;20536;-77
2022/05/01 04:43:06;;;;;;;24.80;22.40;;;9.80;98.20;;;8.77;90.24;98329.03;5076985;28;20448;-77
2022/05/01 04:45:34;;;;;;;24.10;21.60;;;9.90;97.70;;;8.72;89.83;98335.03;5076037;28;21300;-77
2022/05/01 04:48:02;;;;;;;24.60;22.00;;;9.80;97.50;;;8.67;90.11;98328.56;5075829;28;20547;-75
2022/05/01 04:50:29;;;;;;;25.50;22.80;;;9.90;97.40;;;8.69;90.13;98332.72;5075583;28;21046;-74
2022/05/01 04:52:57;;;;;;;25.53;22.93;;;9.90;97.60;;;8.62;90.55;98331.84;5076719;28;20574;-74
2022/05/01 04:55:24;;;;;;;24.60;22.10;;;9.90;97.20;;;8.45;91.01;98337.47;5072794;28;20456;-76
2022/05/01 04:57:52;;;;;;;25.17;22.47;;;9.70;97.90;;;8.66;90.61;98343.88;5097145;28;20603;-73
2022/05/01 05:00:21;;;;;;;27.40;24.17;;;9.80;98.40;;;8.66;90.01;98338.50;5078071;28;20444;-76
2022/05/01 05:02:50;;;;;;;27.47;24.37;;;9.80;97.60;;;8.59;90.30;98337.63;5082912;28;20455;-76
2022/05/01 05:05:19;;;;;;;25.60;23.00;;;9.80;97.50;;;8.54;91.33;98345.44;5074203;28;20451;-73
2022/05/01 05:07:47;;;;;;;26.47;23.97;;;9.70;98.80;;;8.43;91.71;98346.75;5080459;28;20900;-76
2022/05/01 05:10:14;;;;;;;28.07;25.10;;;9.60;99.80;;;8.54;91.60;98351.66;5093169;28;21035;-76
2022/05/01 05:12:44;;;;;;;25.30;22.80;;;9.70;99.90;;;8.66;90.78;98349.25;5076968;28;21096;-73
2022/05/01 05:15:14;;;;;;;26.57;23.87;;;9.80;98.70;;;8.57;91.13;98355.81;5076657;28;20484;-77
2022/05/01 05:17:43;;;;;;;23.93;21.53;;;9.80;98.70;;;8.44;91.49;98357.34;5083335;28;20502;-77
2022/05/01 05:20:12;;;;;;;25.83;23.20;;;9.70;99.10;;;8.35;91.83;98358.50;5075095;28;21070;-74
2022/05/01 05:22:41;;;;;;;26.37;23.77;;;9.60;99.90;;;8.29;92.42;98360.09;5079449;28;20441;-77
2022/05/01 05:25:11;;;;;;;29.17;26.00;;;9.50;99.90;;;8.31;92.57;98373.38;5079728;28;20477;-71
2022/05/01 05:27:39;;;;;;;28.57;23.97;;;9.50;99.90;;;8.42;91.65;98361.25;5082762;28;20467;-70
2022/05/01 05:30:08;;;;;;;25.23;22.73;;;9.60;99.90;;;8.48;91.71;98366.69;5079226;28;20491;-76
2022/05/01 05:32:35;;;;;;;26.63;23.73;;;9.60;99.80;;;8.60;91.32;98352.75;5074658;28;20451;-76
2022/05/01 05:35:04;;;;;;;26.70;24.00;;;9.70;99.90;;;8.78;90.70;98358.47;5084528;28;20460;-73
2022/05/01 05:37:31;;;;;;;25.70;23.20;;;9.90;99.20;;;9.16;89.64;98359.16;5083310;28;20579;-75
2022/05/01 05:39:59;;;;;;;34.90;23.10;;;10.10;96.80;;;9.32;87.96;98355.31;5094671;28;20519;-71
2022/05/01 05:42:26;;;;;;;25.50;23.00;;;10.40;94.80;;;9.39;87.05;98361.56;5100097;28;20440;-70
2022/05/01 05:44:53;;;;;;;26.20;23.60;;;10.60;93.20;;;9.49;86.24;98358.53;5099912;28;20913;-70
2022/05/01 05:47:20;;;;;;;24.53;22.30;;;10.70;92.30;;;9.55;85.36;98363.09;5106077;28;20452;-70
2022/05/01 05:49:47;;;;;;;25.57;23.07;;;10.70;92.10;;;9.78;83.13;98351.13;5096584;28;20451;-74
2022/05/01 05:52:15;;;;;;;22.67;20.27;;;10.80;90.60;;;9.84;83.36;98357.59;5080533;28;20459;-76
2022/05/01 05:54:42;;;;;;;25.30;22.73;;;10.90;90.60;;;9.72;83.94;98369.00;5094643;28;20545;-77
2022/05/01 05:57:09;;;;;;;24.00;21.60;;;10.90;90.80;;;9.73;83.72;98376.06;5081849;28;20563;-73
2022/05/01 05:59:36;;;;;;;26.57;23.90;;;10.80;91.30;;;9.43;85.58;98376.31;5073203;28;20460;-76
2022/05/01 06:02:04;;;;;;;25.40;22.80;;;10.70;91.20;;;9.66;84.42;98374.38;5082499;28;20497;-74
2022/05/01 06:04:31;;;;;;;26.57;23.77;;;10.80;91.50;;;9.50;84.59;98376.38;5078790;28;20694;-79
2022/05/01 06:06:58;;;;;;;25.50;23.10;;;10.70;91.20;;;9.64;84.78;98382.66;5079037;28;20464;-78
2022/05/01 06:09:26;;;;;;;24.07;21.67;;;10.70;91.50;;;9.42;85.85;98368.44;5084091;28;20779;-75
2022/05/01 06:11:54;;;;;;;26.30;23.47;;;10.60;91.70;;;9.80;83.71;98376.09;5082182;28;21096;-77
2022/05/01 06:14:21;;;;;;;24.47;22.07;;;10.70;91.60;;;9.96;83.30;98380.28;5081654;28;21515;-76
2022/05/01 06:16:48;;;;;;;23.77;21.43;;;10.90;91.40;;;9.88;82.97;98378.59;5082514;28;20469;-75
2022/05/01 06:19:15;;;;;;;25.70;22.73;;;10.90;90.70;;;10.00;83.37;98375.31;5076690;28;20548;-76
2022/05/01 06:21:42;;;;;;;25.63;23.03;;;11.00;90.60;;;9.97;82.20;98375.72;5074910;28;20456;-75
2022/05/01 06:24:09;;;;;;;25.03;22.63;;;11.10;90.00;;;9.95;83.56;98377.81;5075416;28;21842;-69
2022/05/01 06:26:38;;;;;;;26.13;23.53;;;11.10;90.80;;;10.17;83.05;98373.09;5081383;28;20534;-74
2022/05/01 06:29:04;;;;;;;22.83;20.57;;;11.20;90.50;;;11.17;79.00;98369.59;5089242;28;20460;-75
2022/05/01 06:31:32;;;;;;;24.10;21.80;;;11.80;87.90;;;12.03;73.65;98366.00;5078219;28;20941;-73
2022/05/01 06:33:59;;;;;;;22.37;20.40;;;12.70;83.40;;;12.79;70.50;98363.44;5081144;28;20496;-72
2022/05/01 06:36:26;;;;;;;21.60;19.50;;;13.50;80.90;;;13.02;69.01;98359.25;5073534;28;20548;-73
2022/05/01 06:38:53;;;;;;;23.17;20.97;;;14.10;79.10;;;13.65;66.95;98360.09;5081216;28;20537;-76
2022/05/01 06:41:20;;;;;;;21.93;19.83;;;14.60;77.90;;;13.93;66.05;98363.31;5107119;27;20550;-85
2022/05/01 06:43:48;;;;;;;23.40;21.00;;;14.90;76.90;;;13.92;65.01;98353.50;5083713;28;20458;-76
2022/05/01 06:46:15;;;;;;;21.27;19.40;;;15.00;75.80;;;13.48;64.43;98364.44;5083475;28;20465;-75
2022/05/01 06:48:42;;;;;;;24.20;19.87;;;14.60;74.50;;;13.32;65.37;98359.38;5081640;28;20465;-74
2022/05/01 06:51:09;;;;;;;20.63;18.73;;;14.60;74.70;;;13.34;65.65;98363.75;5075760;28;20923;-73
2022/05/01 06:53:37;;;;;;;22.60;20.33;;;14.60;74.80;;;13.52;65.20;98366.50;5078618;28;20542;-74
2022/05/01 06:56:04;;;;;;;22.80;20.47;;;14.70;75.00;;;13.36;65.78;98361.63;5078739;28;20454;-76
2022/05/01 06:58:33;;;;;;;21.43;19.43;;;14.60;74.90;;;12.87;67.63;98373.16;5077350;28;20562;-76
2022/05/01 07:01:02;;;;;;;22.70;20.60;;;14.40;75.30;;;13.30;65.93;98372.34;5079868;28;20450;-77
2022/05/01 07:03:28;;;;;;;20.87;19.00;;;14.30;75.20;;;13.80;64.11;98377.88;5083614;28;20457;-77
2022/05/01 07:05:55;;;;;;;20.23;18.37;;;14.70;74.40;;;13.49;64.48;98376.97;5082379;28;20450;-75
2022/05/01 07:08:23;;;;;;;21.93;19.83;;;14.60;73.70;;;12.99;65.24;98375.97;5081189;28;20524;-77
2022/05/01 07:10:50;;;;;;;20.20;18.30;;;14.30;73.50;;;12.68;66.20;98377.69;5077548;28;20494;-76
2022/05/01 07:13:17;;;;;;;21.27;19.27;;;14.00;74.00;;;12.79;66.92;98374.28;5075733;28;20537;-76
2022/05/01 07:15:44;;;;;;;22.73;20.43;;;14.00;74.80;;;12.79;66.77;98376.13;5079701;28;20566;-76
2022/05/01 07:18:12;;;;;;;22.30;20.10;;;14.00;74.70;;;12.23;67.19;98329.88;5082711;28;20475;-76
2022/05/01 07:20:39;;;;;;;22.33;20.23;;;13.70;74.30;;;12.33;68.08;98382.50;5075715;28;20446;-75
2022/05/01 07:23:07;;;;;;;21.63;19.63;;;13.70;74.70;;;12.53;68.11;98375.31;5079881;28;20439;-75
2022/05/01 07:25:34;;;;;;;20.43;18.73;;;13.60;75.30;;;12.96;65.43;98362.84;5077393;28;20450;-76
2022/05/01 07:28:01;;;;;;;22.47;20.37;;;14.00;74.40;;;13.08;65.44;98365.66;5082667;28;20636;-77
2022/05/01 07:30:27;;;;;;;21.00;19.10;;;14.10;74.20;;;12.99;64.92;98367.84;5076853;28;20548;-76
2022/05/01 07:32:54;;;;;;;21.53;19.43;;;14.10;73.60;;;12.65;66.57;98378.13;5094415;27;20468;-75
2022/05/01 07:35:23;;;;;;;23.07;20.97;;;13.90;74.40;;;12.79;66.20;98376.13;5075777;28;20448;-75
2022/05/01 07:37:50;;;;;;;21.57;19.40;;;13.90;74.20;;;12.72;66.13;98347.22;5078167;28;20470;-76
2022/05/01 07:40:17;;;;;;;22.43;20.23;;;13.90;74.50;;;13.35;64.62;98377.09;5098050;27;20456;-75
2022/05/01 07:42:44;;;;;;;21.63;19.27;;;14.20;74.00;;;13.62;63.64;98371.38;5086666;28;20496;-74
2022/05/01 07:45:11;;;;;;;22.20;20.10;;;14.50;73.50;;;13.40;63.52;98376.41;5075335;28;20483;-76
2022/05/01 07:47:38;;;;;;;20.50;18.60;;;14.50;72.80;;;13.19;63.73;98318.81;5077943;28;20903;-76
2022/05/01 07:50:08;;;;;;;20.80;18.90;;;14.50;73.00;;;14.16;61.85;98371.53;5080309;28;20554;-75
2022/05/01 07:52:37;;;;;;;20.67;18.73;;;14.80;72.70;;;14.23;60.73;98371.44;5074624;28;20907;-77
2022/05/01 07:55:07;;;;;;;19.37;17.60;;;15.10;71.70;;;14.85;58.81;98367.59;5076920;28;20516;-79
2022/05/01 07:57:33;;;;;;;21.63;19.53;;;15.60;70.80;;;14.29;59.67;98373.25;5078876;28;20474;-74
2022/05/01 08:00:00;;;;;;;19.03;17.27;;;15.50;70.00;;;13.95;61.21;98377.47;5096588;28;20442;-78
2022/05/01 08:04:27;;;;;;;20.37;18.37;;;15.20;70.40;;;13.91;60.53;98358.09;5082614;28;20885;-79
2022/05/01 08:05:23;;;;;;;20.27;18.40;;;15.20;70.00;;;13.64;62.58;98373.88;5072514;28;20549;-78
2022/05/01 08:07:52;;;;;;;18.23;16.53;;;14.90;70.80;;;13.64;62.35;98372.00;5097285;28;21067;-82
2022/05/01 08:10:20;;;;;;;19.40;17.60;;;14.90;70.80;;;13.57;61.89;98377.53;5076637;28;20462;-80
2022/05/01 08:12:48;;;;;;;19.30;17.53;;;14.80;70.30;;;13.94;61.19;98379.34;5096431;28;20446;-80
2022/05/01 08:15:17;;;;;;;19.40;17.40;;;15.00;70.30;;;14.07;60.86;98375.66;5090668;28;20636;-79
2022/05/01 08:17:44;;;;;;;21.20;19.10;;;15.10;70.10;;;14.11;60.90;98378.75;5077235;28;20459;-80
2022/05/01 08:23:08;;;;;;;19.53;17.60;;;14.90;69.90;;;13.90;60.95;98369.19;5082522;28;20207;-78
2022/05/01 08:25:38;;;;;;;20.87;18.67;;;14.90;70.00;;;14.53;59.82;98369.78;5083600;28;20454;-81
2022/05/01 08:28:06;;;;;;;19.83;17.93;;;15.40;69.70;;;15.02;57.89;98351.44;5079854;28;20511;-77
2022/05/01 08:30:35;;;;;;;19.30;17.50;;;15.90;68.70;;;15.33;56.67;98361.34;5089608;28;20451;-77
2022/05/01 08:33:03;;;;;;;21.33;19.33;;;16.30;68.20;;;15.84;55.79;98364.34;5086009;28;20542;-81
2022/05/01 08:35:30;;;;;;;19.97;18.07;;;16.70;67.20;;;14.99;57.12;98367.38;5080686;28;20459;-82
2022/05/01 08:37:57;;;;;;;19.27;17.57;;;16.30;66.70;;;14.91;57.49;98359.59;5079060;28;20476;-76
2022/05/01 08:40:27;;;;;;;18.47;16.60;;;16.10;66.80;;;15.06;57.10;98356.38;5082486;28;20979;-78
2022/05/01 08:42:55;;;;;;;18.37;16.77;;;16.10;66.70;;;15.00;57.49;98369.03;5082822;28;21027;-81
2022/05/01 08:45:27;;;;;;;18.63;16.90;;;16.10;67.30;;;15.21;56.47;98370.34;5077171;28;20545;-77
2022/05/01 08:48:01;;;;;;;14.73;13.43;;;16.20;66.40;;;15.52;55.07;98362.06;5078603;28;20471;-82
2022/05/01 08:50:28;;;;;;;19.10;17.33;;;16.40;65.40;;;14.81;58.28;98366.44;5078737;28;20451;-81
2022/05/01 08:52:56;;;;;;;18.90;17.23;;;16.10;66.90;;;15.08;58.78;98365.97;5077708;28;20553;-73
2022/05/01 08:55:25;;;;;;;18.67;16.97;;;16.10;67.80;;;15.49;56.39;98365.25;5073346;28;20542;-80
2022/05/01 08:57:52;;;;;;;18.47;16.90;;;16.40;67.00;;;15.39;56.83;98365.84;5080439;28;20482;-77
2022/05/01 09:00:20;;;;;;;18.00;16.40;;;16.40;66.70;;;15.06;56.84;98356.38;5083408;28;20989;-78
2022/05/01 09:02:48;;;;;;;17.37;15.67;;;16.40;65.80;;;15.13;56.47;98357.13;5086242;28;21152;-78
2022/05/01 09:05:16;;;;;;;17.57;16.07;;;16.20;65.50;;;15.17;56.53;98357.47;5074700;28;20486;-76
2022/05/01 09:07:43;;;;;;;15.90;14.53;;;16.20;65.60;;;15.17;56.14;98363.72;5096355;28;20455;-78
2022/05/01 09:10:11;;;;;;;19.33;17.63;;;16.20;65.20;;;15.28;56.70;98359.34;5075743;28;20484;-80
2022/05/01 09:12:52;;;;;;;19.40;17.70;;;16.40;66.20;;;14.98;58.06;98366.56;5079087;28;20459;-79
2022/05/01 09:15:34;;;;;;;19.70;17.80;;;16.30;66.40;;;15.42;57.47;98365.38;5078371;28;20943;-78
2022/05/01 09:18:04;;;;;;;18.03;16.43;;;16.40;66.50;;;15.82;55.32;98370.03;5080137;28;20565;-78
2022/05/01 09:20:31;;;;;;;18.00;16.03;;;16.70;65.60;;;15.98;55.09;98362.19;5078925;28;20470;-77
2022/05/01 09:23:00;;;;;;;18.30;16.70;;;16.90;65.00;;;16.21;54.46;98365.91;5075629;28;20490;-78
2022/05/01 09:25:29;;;;;;;20.03;18.13;;;17.20;64.80;;;15.91;54.72;98372.41;5095482;28;20458;-77
2022/05/01 09:27:59;;;;;;;18.10;16.50;;;17.10;64.30;;;15.92;54.72;98363.16;5077609;28;21202;-77
2022/05/01 09:30:34;;;;;;;16.40;15.00;;;16.90;64.00;;;16.22;53.52;98367.56;5078441;28;20486;-79
2022/05/01 09:33:03;;;;;;;16.40;15.03;;;17.30;63.40;;;16.17;53.65;98370.19;5082921;28;20451;-80
2022/05/01 09:35:32;;;;;;;16.87;15.47;;;17.10;63.60;;;16.69;51.83;98356.38;5077298;28;20486;-79
2022/05/01 09:38:17;;;;;;;17.30;15.80;;;17.50;62.50;;;16.99;50.61;98327.97;5075366;28;20478;-77
2022/05/01 09:40:46;;;;;;;18.27;16.70;;;17.90;62.10;;;16.90;50.85;98361.34;5074340;28;20468;-74
2022/05/01 09:43:37;;;;;;;16.00;14.63;;;18.00;61.20;;;16.73;51.56;98372.25;5077523;28;20459;-77
2022/05/01 09:46:17;;;;;;;16.07;14.17;;;17.70;61.50;;;16.88;50.79;98356.13;5076848;28;20444;-76
2022/05/01 09:48:58;;;;;;;14.30;13.10;;;17.90;61.00;;;17.09;49.49;98351.84;5081210;28;20462;-77
2022/05/01 09:51:27;;;;;;;14.50;13.20;;;18.10;60.10;;;17.77;48.69;98353.59;5072599;28;20462;-75
2022/05/01 09:53:54;;;;;;;15.87;14.37;;;18.50;60.00;;;18.15;48.27;98340.09;5073837;28;20539;-72
2022/05/01 09:56:21;;;;;;;16.50;15.00;;;18.80;60.20;;;18.51;47.13;98356.88;5093907;28;20982;-78
2022/05/01 09:58:59;;;;;;;16.73;15.23;;;19.20;59.20;;;18.33;47.21;98349.03;5076532;28;20581;-80
2022/05/01 10:01:26;;;;;;;16.40;14.80;;;19.30;58.70;;;18.57;46.99;98352.25;5074533;28;20947;-79
2022/05/01 10:03:53;;;;;;;15.33;14.03;;;19.40;58.60;;;18.50;46.71;98354.41;5078103;28;20529;-79
2022/05/01 10:06:21;;;;;;;15.17;13.97;;;19.50;57.70;;;18.05;47.23;98349.03;5071281;28;20543;-76
2022/05/01 10:08:48;;;;;;;14.70;13.50;;;19.20;57.40;;;17.26;49.72;98343.66;5077736;28;20473;-76
2022/05/01 10:11:17;;;;;;;15.27;13.70;;;18.60;58.00;;;17.61;47.89;98330.72;5076174;28;20505;-76
2022/05/01 10:13:46;;;;;;;15.73;14.23;;;18.70;57.70;;;17.52;47.82;98308.50;5078764;28;21578;-75
2022/05/01 10:16:16;;;;;;;13.90;12.73;;;18.70;57.70;;;17.47;47.38;98335.72;5078058;28;20550;-76
2022/05/01 10:18:45;;;;;;;14.70;13.50;;;18.50;57.10;;;16.78;49.51;98331.44;5085628;28;20467;-77
2022/05/01 10:21:13;;;;;;;15.53;14.23;;;18.00;57.30;;;17.35;49.36;98329.53;5081305;28;20482;-74
2022/05/01 10:23:41;;;;;;;14.93;13.73;;;18.20;58.30;;;17.67;48.20;98324.22;5098512;28;20444;-75
2022/05/01 10:26:15;;;;;;;14.90;13.63;;;18.50;58.00;;;17.60;48.01;98322.78;5081256;28;20463;-75
2022/05/01 10:29:10;;;;;;;16.77;15.37;;;18.70;57.30;;;18.18;47.53;98319.63;5082980;28;20481;-81
2022/05/01 10:35:04;;;;;;;14.93;13.63;;;19.00;57.00;;;18.09;46.21;98316.53;5079810;28;20455;-80